sensor_id;sensor_type;location;lat;lon;timestamp;pressure;altitude;pressure_sealevel;temperature;humidity
53340;BME280;46212;50.258;19.062;2023-04-10T00:02:18;99325.41;;;6.94;98.86
53340;BME280;46212;50.258;19.062;2023-04-10T00:04:44;99317.41;;;6.76;98.97
53340;BME280;46212;50.258;19.062;2023-04-10T00:07:10;99314.91;;;6.85;99.24
53340;BME280;46212;50.258;19.062;2023-04-10T00:09:35;99310.22;;;7.13;97.84
53340;BME280;46212;50.258;19.062;2023-04-10T00:12:01;99298.97;;;7.04;97.86
53340;BME280;46212;50.258;19.062;2023-04-10T00:14:26;99304.97;;;7.22;97.08
53340;BME280;46212;50.258;19.062;2023-04-10T00:16:51;99298.81;;;7.14;96.89
53340;BME280;46212;50.258;19.062;2023-04-10T00:19:17;99305.81;;;7.19;96.61
53340;BME280;46212;50.258;19.062;2023-04-10T00:21:42;99298.56;;;7.05;96.80
53340;BME280;46212;50.258;19.062;2023-04-10T00:24:08;99302.56;;;7.01;97.32
53340;BME280;46212;50.258;19.062;2023-04-10T00:26:34;99296.75;;;6.95;97.80
53340;BME280;46212;50.258;19.062;2023-04-10T00:29:01;99300.84;;;6.83;98.37
53340;BME280;46212;50.258;19.062;2023-04-10T00:31:27;99297.53;;;6.95;98.76
53340;BME280;46212;50.258;19.062;2023-04-10T00:33:52;99290.78;;;7.00;97.35
53340;BME280;46212;50.258;19.062;2023-04-10T00:36:18;99299.53;;;6.91;97.79
53340;BME280;46212;50.258;19.062;2023-04-10T00:38:43;99310.56;;;7.15;97.36
53340;BME280;46212;50.258;19.062;2023-04-10T00:41:09;99302.81;;;7.33;96.24
53340;BME280;46212;50.258;19.062;2023-04-10T00:43:35;99298.53;;;7.32;95.82
53340;BME280;46212;50.258;19.062;2023-04-10T00:48:44;99305.31;;;7.01;97.88
53340;BME280;46212;50.258;19.062;2023-04-10T00:51:10;99308.19;;;7.17;97.85
53340;BME280;46212;50.258;19.062;2023-04-10T00:53:36;99302.28;;;7.18;97.38
53340;BME280;46212;50.258;19.062;2023-04-10T00:56:01;99301.03;;;7.23;96.92
53340;BME280;46212;50.258;19.062;2023-04-10T00:58:27;99304.50;;;7.27;96.60
53340;BME280;46212;50.258;19.062;2023-04-10T01:00:53;99299.25;;;7.13;97.19
53340;BME280;46212;50.258;19.062;2023-04-10T01:03:20;99308.72;;;7.08;97.38
53340;BME280;46212;50.258;19.062;2023-04-10T01:06:07;99301.25;;;7.09;97.82
53340;BME280;46212;50.258;19.062;2023-04-10T01:13:54;99289.06;;;6.83;99.75
53340;BME280;46212;50.258;19.062;2023-04-10T01:16:30;99287.41;;;6.89;99.72
53340;BME280;46212;50.258;19.062;2023-04-10T01:21:49;99286.97;;;6.94;99.57
53340;BME280;46212;50.258;19.062;2023-04-10T01:27:11;99315.56;;;6.97;99.81
53340;BME280;46212;50.258;19.062;2023-04-10T01:29:46;99313.84;;;7.06;99.46
53340;BME280;46212;50.258;19.062;2023-04-10T01:32:16;99309.00;;;7.14;98.75
53340;BME280;46212;50.258;19.062;2023-04-10T01:34:44;99313.31;;;7.15;98.32
53340;BME280;46212;50.258;19.062;2023-04-10T01:37:15;99303.50;;;7.14;98.11
53340;BME280;46212;50.258;19.062;2023-04-10T01:39:41;99311.88;;;7.07;98.59
53340;BME280;46212;50.258;19.062;2023-04-10T01:42:10;99307.03;;;7.14;98.75
53340;BME280;46212;50.258;19.062;2023-04-10T01:44:37;99306.00;;;7.05;98.81
53340;BME280;46212;50.258;19.062;2023-04-10T01:47:05;99305.91;;;7.12;98.84
53340;BME280;46212;50.258;19.062;2023-04-10T01:49:31;99303.25;;;7.05;98.51
53340;BME280;46212;50.258;19.062;2023-04-10T01:51:59;99296.94;;;7.08;98.90
53340;BME280;46212;50.258;19.062;2023-04-10T01:54:30;99302.09;;;7.06;99.20
53340;BME280;46212;50.258;19.062;2023-04-10T01:56:57;99302.09;;;7.06;99.50
53340;BME280;46212;50.258;19.062;2023-04-10T01:59:23;99301.53;;;6.91;99.89
53340;BME280;46212;50.258;19.062;2023-04-10T02:01:55;99298.50;;;7.09;99.92
53340;BME280;46212;50.258;19.062;2023-04-10T02:04:20;99305.22;;;7.04;99.39
53340;BME280;46212;50.258;19.062;2023-04-10T02:07:02;99292.53;;;7.14;99.19
53340;BME280;46212;50.258;19.062;2023-04-10T02:09:43;99298.84;;;7.11;99.45
53340;BME280;46212;50.258;19.062;2023-04-10T02:12:17;99300.66;;;7.21;99.22
53340;BME280;46212;50.258;19.062;2023-04-10T02:14:46;99300.22;;;7.26;98.69
53340;BME280;46212;50.258;19.062;2023-04-10T02:17:19;99290.91;;;7.20;98.75
53340;BME280;46212;50.258;19.062;2023-04-10T02:19:47;99300.38;;;7.15;99.19
53340;BME280;46212;50.258;19.062;2023-04-10T02:22:15;99304.72;;;7.13;99.56
53340;BME280;46212;50.258;19.062;2023-04-10T02:24:41;99304.47;;;7.04;99.65
53340;BME280;46212;50.258;19.062;2023-04-10T02:27:07;99289.91;;;7.07;99.90
53340;BME280;46212;50.258;19.062;2023-04-10T02:29:32;99300.84;;;7.10;100.00
53340;BME280;46212;50.258;19.062;2023-04-10T02:31:59;99293.31;;;7.14;99.99
53340;BME280;46212;50.258;19.062;2023-04-10T02:34:24;99295.84;;;7.02;99.68
53340;BME280;46212;50.258;19.062;2023-04-10T02:36:50;99295.91;;;6.98;100.00
53340;BME280;46212;50.258;19.062;2023-04-10T02:39:15;99303.41;;;7.21;100.00
53340;BME280;46212;50.258;19.062;2023-04-10T02:41:40;99307.25;;;7.27;99.85
53340;BME280;46212;50.258;19.062;2023-04-10T02:44:06;99303.84;;;7.19;99.38
53340;BME280;46212;50.258;19.062;2023-04-10T02:46:31;99303.59;;;7.10;100.00
53340;BME280;46212;50.258;19.062;2023-04-10T02:48:57;99307.47;;;7.13;100.00
53340;BME280;46212;50.258;19.062;2023-04-10T02:51:23;99303.16;;;7.12;100.00
53340;BME280;46212;50.258;19.062;2023-04-10T02:53:48;99307.88;;;7.11;100.00
53340;BME280;46212;50.258;19.062;2023-04-10T02:56:14;99316.75;;;6.95;100.00
53340;BME280;46212;50.258;19.062;2023-04-10T02:58:39;99315.50;;;7.00;100.00
53340;BME280;46212;50.258;19.062;2023-04-10T03:01:09;99316.84;;;7.15;100.00
53340;BME280;46212;50.258;19.062;2023-04-10T03:03:34;99304.53;;;7.00;100.00
53340;BME280;46212;50.258;19.062;2023-04-10T03:06:00;99307.00;;;7.18;100.00
53340;BME280;46212;50.258;19.062;2023-04-10T03:08:25;99305.28;;;7.27;100.00
53340;BME280;46212;50.258;19.062;2023-04-10T03:10:51;99300.38;;;7.15;100.00
53340;BME280;46212;50.258;19.062;2023-04-10T03:13:16;99302.88;;;7.06;100.00
53340;BME280;46212;50.258;19.062;2023-04-10T03:15:42;99302.69;;;7.17;100.00
53340;BME280;46212;50.258;19.062;2023-04-10T03:18:07;99300.78;;;7.14;100.00
53340;BME280;46212;50.258;19.062;2023-04-10T03:20:36;99302.44;;;7.08;100.00
53340;BME280;46212;50.258;19.062;2023-04-10T03:23:03;99306.34;;;7.10;100.00
53340;BME280;46212;50.258;19.062;2023-04-10T03:25:28;99298.16;;;7.07;100.00
53340;BME280;46212;50.258;19.062;2023-04-10T03:27:55;99295.75;;;7.09;100.00
53340;BME280;46212;50.258;19.062;2023-04-10T03:30:21;99300.84;;;7.10;100.00
53340;BME280;46212;50.258;19.062;2023-04-10T03:32:46;99304.09;;;7.02;100.00
53340;BME280;46212;50.258;19.062;2023-04-10T03:35:12;99305.19;;;7.08;100.00
53340;BME280;46212;50.258;19.062;2023-04-10T03:37:37;99306.06;;;7.01;100.00
53340;BME280;46212;50.258;19.062;2023-04-10T03:40:06;99304.41;;;7.07;100.00
53340;BME280;46212;50.258;19.062;2023-04-10T03:42:32;99305.22;;;7.04;100.00
53340;BME280;46212;50.258;19.062;2023-04-10T03:44:57;99309.47;;;6.82;100.00
53340;BME280;46212;50.258;19.062;2023-04-10T03:47:23;99311.72;;;6.90;100.00
53340;BME280;46212;50.258;19.062;2023-04-10T03:49:48;99308.34;;;6.79;100.00
53340;BME280;46212;50.258;19.062;2023-04-10T03:52:13;99304.28;;;6.91;100.00
53340;BME280;46212;50.258;19.062;2023-04-10T03:54:39;99306.22;;;6.90;100.00
53340;BME280;46212;50.258;19.062;2023-04-10T03:57:05;99294.31;;;7.01;100.00
53340;BME280;46212;50.258;19.062;2023-04-10T03:59:30;99295.25;;;6.90;100.00
53340;BME280;46212;50.258;19.062;2023-04-10T04:01:55;99298.84;;;7.11;100.00
53340;BME280;46212;50.258;19.062;2023-04-10T04:04:21;99306.06;;;7.01;100.00
53340;BME280;46212;50.258;19.062;2023-04-10T04:06:47;99303.44;;;6.94;100.00
53340;BME280;46212;50.258;19.062;2023-04-10T04:09:13;99302.22;;;6.95;100.00
53340;BME280;46212;50.258;19.062;2023-04-10T04:11:38;99299.81;;;7.01;100.00
53340;BME280;46212;50.258;19.062;2023-04-10T04:14:03;99306.63;;;6.89;100.00
53340;BME280;46212;50.258;19.062;2023-04-10T04:16:29;99305.41;;;6.93;100.00
53340;BME280;46212;50.258;19.062;2023-04-10T04:18:54;99299.19;;;6.89;100.00
53340;BME280;46212;50.258;19.062;2023-04-10T04:21:20;99302.66;;;6.93;100.00
53340;BME280;46212;50.258;19.062;2023-04-10T04:23:45;99300.16;;;7.03;100.00
53340;BME280;46212;50.258;19.062;2023-04-10T04:26:10;99306.28;;;6.87;100.00
53340;BME280;46212;50.258;19.062;2023-04-10T04:28:36;99311.63;;;6.98;100.00
53340;BME280;46212;50.258;19.062;2023-04-10T04:31:01;99310.91;;;6.93;100.00
53340;BME280;46212;50.258;19.062;2023-04-10T04:33:27;99310.81;;;7.01;100.00
53340;BME280;46212;50.258;19.062;2023-04-10T04:35:52;99297.06;;;7.01;100.00
53340;BME280;46212;50.258;19.062;2023-04-10T04:38:17;99311.34;;;7.15;100.00
53340;BME280;46212;50.258;19.062;2023-04-10T04:40:44;99314.69;;;7.03;100.00
53340;BME280;46212;50.258;19.062;2023-04-10T04:43:10;99317.81;;;7.02;100.00
53340;BME280;46212;50.258;19.062;2023-04-10T04:45:35;99328.91;;;6.94;100.00
53340;BME280;46212;50.258;19.062;2023-04-10T04:48:00;99320.75;;;6.91;100.00
53340;BME280;46212;50.258;19.062;2023-04-10T04:50:26;99319.13;;;6.93;100.00
53340;BME280;46212;50.258;19.062;2023-04-10T04:52:51;99323.06;;;6.92;100.00
53340;BME280;46212;50.258;19.062;2023-04-10T04:55:16;99317.03;;;7.01;100.00
53340;BME280;46212;50.258;19.062;2023-04-10T04:57:42;99323.69;;;7.04;100.00
53340;BME280;46212;50.258;19.062;2023-04-10T05:00:07;99321.59;;;7.11;100.00
53340;BME280;46212;50.258;19.062;2023-04-10T05:02:33;99327.72;;;7.22;100.00
53340;BME280;46212;50.258;19.062;2023-04-10T05:04:58;99324.59;;;7.20;100.00
53340;BME280;46212;50.258;19.062;2023-04-10T05:07:24;99333.59;;;7.24;100.00
53340;BME280;46212;50.258;19.062;2023-04-10T05:09:49;99331.19;;;7.26;100.00
53340;BME280;46212;50.258;19.062;2023-04-10T05:12:15;99335.53;;;7.24;100.00
53340;BME280;46212;50.258;19.062;2023-04-10T05:14:41;99342.56;;;7.28;100.00
53340;BME280;46212;50.258;19.062;2023-04-10T05:17:06;99340.06;;;7.11;100.00
53340;BME280;46212;50.258;19.062;2023-04-10T05:19:31;99339.22;;;7.14;100.00
53340;BME280;46212;50.258;19.062;2023-04-10T05:21:57;99353.03;;;7.10;100.00
53340;BME280;46212;50.258;19.062;2023-04-10T05:24:22;99345.06;;;7.19;100.00
53340;BME280;46212;50.258;19.062;2023-04-10T05:26:48;99337.78;;;7.06;100.00
53340;BME280;46212;50.258;19.062;2023-04-10T05:29:13;99344.28;;;7.19;100.00
53340;BME280;46212;50.258;19.062;2023-04-10T05:31:38;99341.91;;;7.17;100.00
53340;BME280;46212;50.258;19.062;2023-04-10T05:34:04;99343.47;;;7.45;100.00
53340;BME280;46212;50.258;19.062;2023-04-10T05:36:30;99348.59;;;7.43;100.00
53340;BME280;46212;50.258;19.062;2023-04-10T05:38:56;99351.63;;;7.25;100.00
53340;BME280;46212;50.258;19.062;2023-04-10T05:41:22;99342.25;;;7.23;100.00
53340;BME280;46212;50.258;19.062;2023-04-10T05:43:47;99336.38;;;7.21;100.00
53340;BME280;46212;50.258;19.062;2023-04-10T05:46:13;99357.56;;;7.47;100.00
53340;BME280;46212;50.258;19.062;2023-04-10T05:48:39;99357.66;;;7.67;100.00
53340;BME280;46212;50.258;19.062;2023-04-10T05:51:04;99348.53;;;7.46;100.00
53340;BME280;46212;50.258;19.062;2023-04-10T05:53:30;99352.44;;;7.49;99.97
53340;BME280;46212;50.258;19.062;2023-04-10T05:55:59;99349.38;;;7.43;100.00
53340;BME280;46212;50.258;19.062;2023-04-10T05:58:26;99350.47;;;7.49;100.00
53340;BME280;46212;50.258;19.062;2023-04-10T06:00:52;99355.19;;;7.49;100.00
53340;BME280;46212;50.258;19.062;2023-04-10T06:03:17;99351.72;;;7.68;99.90
53340;BME280;46212;50.258;19.062;2023-04-10T06:05:44;99358.72;;;7.49;100.00
53340;BME280;46212;50.258;19.062;2023-04-10T06:08:10;99365.13;;;7.66;100.00
53340;BME280;46212;50.258;19.062;2023-04-10T06:10:35;99366.91;;;7.53;100.00
53340;BME280;46212;50.258;19.062;2023-04-10T06:13:00;99363.75;;;7.55;100.00
53340;BME280;46212;50.258;19.062;2023-04-10T06:15:26;99364.16;;;7.53;100.00
53340;BME280;46212;50.258;19.062;2023-04-10T06:17:51;99370.78;;;7.56;100.00
53340;BME280;46212;50.258;19.062;2023-04-10T06:20:18;99363.59;;;7.62;100.00
53340;BME280;46212;50.258;19.062;2023-04-10T06:22:43;99370.56;;;7.70;99.00
53340;BME280;46212;50.258;19.062;2023-04-10T06:25:09;99363.56;;;7.65;99.20
53340;BME280;46212;50.258;19.062;2023-04-10T06:27:35;99366.91;;;7.53;99.84
53340;BME280;46212;50.258;19.062;2023-04-10T06:30:00;99377.41;;;7.58;100.00
53340;BME280;46212;50.258;19.062;2023-04-10T06:32:26;99368.91;;;7.49;100.00
53340;BME280;46212;50.258;19.062;2023-04-10T06:34:51;99368.22;;;7.45;100.00
53340;BME280;46212;50.258;19.062;2023-04-10T06:37:17;99364.34;;;7.39;100.00
53340;BME280;46212;50.258;19.062;2023-04-10T06:39:42;99371.00;;;7.41;100.00
53340;BME280;46212;50.258;19.062;2023-04-10T06:42:08;99380.44;;;7.67;100.00
53340;BME280;46212;50.258;19.062;2023-04-10T06:44:33;99375.16;;;7.53;100.00
53340;BME280;46212;50.258;19.062;2023-04-10T06:46:58;99379.50;;;7.51;100.00
53340;BME280;46212;50.258;19.062;2023-04-10T06:49:24;99375.50;;;7.55;100.00
53340;BME280;46212;50.258;19.062;2023-04-10T06:51:50;99384.28;;;7.46;100.00
53340;BME280;46212;50.258;19.062;2023-04-10T06:54:16;99382.22;;;7.54;100.00
53340;BME280;46212;50.258;19.062;2023-04-10T06:56:41;99383.03;;;7.51;100.00
53340;BME280;46212;50.258;19.062;2023-04-10T06:59:06;99387.03;;;7.46;100.00
53340;BME280;46212;50.258;19.062;2023-04-10T07:01:32;99376.31;;;7.52;100.00
53340;BME280;46212;50.258;19.062;2023-04-10T07:03:57;99376.56;;;7.61;100.00
53340;BME280;46212;50.258;19.062;2023-04-10T07:06:22;99375.97;;;7.50;100.00
53340;BME280;46212;50.258;19.062;2023-04-10T07:08:48;99375.16;;;7.53;100.00
53340;BME280;46212;50.258;19.062;2023-04-10T07:11:14;99367.88;;;7.66;100.00
53340;BME280;46212;50.258;19.062;2023-04-10T07:13:39;99369.25;;;7.78;99.93
53340;BME280;46212;50.258;19.062;2023-04-10T07:16:06;99369.00;;;7.69;99.58
53340;BME280;46212;50.258;19.062;2023-04-10T07:18:34;99361.19;;;7.67;100.00
53340;BME280;46212;50.258;19.062;2023-04-10T07:21:09;99367.75;;;7.73;100.00
53340;BME280;46212;50.258;19.062;2023-04-10T07:23:35;99366.16;;;7.99;99.11
53340;BME280;46212;50.258;19.062;2023-04-10T07:26:01;99377.84;;;8.03;98.40
53340;BME280;46212;50.258;19.062;2023-04-10T07:28:26;99368.41;;;8.04;97.83
53340;BME280;46212;50.258;19.062;2023-04-10T07:30:52;99370.31;;;7.84;98.89
53340;BME280;46212;50.258;19.062;2023-04-10T07:33:17;99362.00;;;7.87;99.32
53340;BME280;46212;50.258;19.062;2023-04-10T07:35:42;99370.09;;;7.98;99.55
53340;BME280;46212;50.258;19.062;2023-04-10T07:38:08;99372.78;;;8.01;98.98
53340;BME280;46212;50.258;19.062;2023-04-10T07:40:35;99367.78;;;8.16;98.21
53340;BME280;46212;50.258;19.062;2023-04-10T07:43:01;99367.00;;;8.16;97.71
53340;BME280;46212;50.258;19.062;2023-04-10T07:45:26;99357.44;;;8.24;97.65
53340;BME280;46212;50.258;19.062;2023-04-10T07:47:52;99366.78;;;8.30;97.41
53340;BME280;46212;50.258;19.062;2023-04-10T07:50:17;99365.03;;;8.39;96.86
53340;BME280;46212;50.258;19.062;2023-04-10T07:52:43;99360.94;;;8.47;95.83
53340;BME280;46212;50.258;19.062;2023-04-10T07:55:08;99366.03;;;8.49;96.04
53340;BME280;46212;50.258;19.062;2023-04-10T07:57:34;99373.84;;;8.50;95.90
53340;BME280;46212;50.258;19.062;2023-04-10T08:00:00;99362.91;;;8.67;94.60
53340;BME280;46212;50.258;19.062;2023-04-10T08:02:25;99371.16;;;8.67;94.39
53340;BME280;46212;50.258;19.062;2023-04-10T08:04:50;99369.06;;;8.74;94.91
53340;BME280;46212;50.258;19.062;2023-04-10T08:07:19;99374.97;;;8.73;94.72
53340;BME280;46212;50.258;19.062;2023-04-10T08:09:45;99375.41;;;8.71;94.55
53340;BME280;46212;50.258;19.062;2023-04-10T08:12:10;99370.88;;;8.81;94.12
53340;BME280;46212;50.258;19.062;2023-04-10T08:14:36;99366.63;;;8.76;93.85
53340;BME280;46212;50.258;19.062;2023-04-10T08:17:01;99365.94;;;8.72;94.35
53340;BME280;46212;50.258;19.062;2023-04-10T08:19:27;99363.81;;;8.80;94.27
53340;BME280;46212;50.258;19.062;2023-04-10T08:21:52;99368.00;;;8.68;94.08
53340;BME280;46212;50.258;19.062;2023-04-10T08:24:17;99365.31;;;8.84;93.82
53340;BME280;46212;50.258;19.062;2023-04-10T08:26:44;99363.19;;;9.08;93.07
53340;BME280;46212;50.258;19.062;2023-04-10T08:29:09;99380.50;;;9.08;92.40
53340;BME280;46212;50.258;19.062;2023-04-10T08:31:35;99376.75;;;9.19;92.89
53340;BME280;46212;50.258;19.062;2023-04-10T08:34:00;99377.72;;;9.28;91.96
53340;BME280;46212;50.258;19.062;2023-04-10T08:36:26;99369.53;;;9.25;91.87
53340;BME280;46212;50.258;19.062;2023-04-10T08:38:51;99364.78;;;9.25;92.02
53340;BME280;46212;50.258;19.062;2023-04-10T08:41:18;99372.03;;;9.19;92.15
53340;BME280;46212;50.258;19.062;2023-04-10T08:43:45;99367.09;;;9.27;92.53
53340;BME280;46212;50.258;19.062;2023-04-10T08:46:11;99367.59;;;9.41;92.51
53340;BME280;46212;50.258;19.062;2023-04-10T08:48:44;99367.94;;;9.59;91.91
53340;BME280;46212;50.258;19.062;2023-04-10T08:51:14;99365.59;;;9.90;90.07
53340;BME280;46212;50.258;19.062;2023-04-10T08:53:43;99355.16;;;9.98;89.74
53340;BME280;46212;50.258;19.062;2023-04-10T08:56:11;99365.66;;;10.03;89.45
53340;BME280;46212;50.258;19.062;2023-04-10T08:58:40;99365.16;;;10.08;88.57
53340;BME280;46212;50.258;19.062;2023-04-10T09:01:08;99363.81;;;10.12;88.50
53340;BME280;46212;50.258;19.062;2023-04-10T09:03:34;99365.28;;;10.33;87.45
53340;BME280;46212;50.258;19.062;2023-04-10T09:06:01;99374.81;;;10.45;86.53
53340;BME280;46212;50.258;19.062;2023-04-10T09:08:28;99366.22;;;10.43;86.64
53340;BME280;46212;50.258;19.062;2023-04-10T09:10:54;99371.78;;;10.55;86.64
53340;BME280;46212;50.258;19.062;2023-04-10T09:13:38;99369.63;;;10.47;86.13
53340;BME280;46212;50.258;19.062;2023-04-10T09:16:04;99378.94;;;10.53;86.38
53340;BME280;46212;50.258;19.062;2023-04-10T09:18:47;99367.00;;;10.56;86.16
53340;BME280;46212;50.258;19.062;2023-04-10T09:21:16;99372.16;;;10.41;86.30
53340;BME280;46212;50.258;19.062;2023-04-10T09:23:43;99365.28;;;10.33;86.70
53340;BME280;46212;50.258;19.062;2023-04-10T09:26:28;99359.19;;;10.09;87.78
53340;BME280;46212;50.258;19.062;2023-04-10T09:29:04;99359.03;;;10.17;87.74
53340;BME280;46212;50.258;19.062;2023-04-10T09:31:35;99360.03;;;10.23;87.58
53340;BME280;46212;50.258;19.062;2023-04-10T09:34:19;99363.66;;;10.20;87.77
53340;BME280;46212;50.258;19.062;2023-04-10T09:36:55;99354.28;;;10.01;88.70
53340;BME280;46212;50.258;19.062;2023-04-10T09:39:31;99365.31;;;10.01;89.28
53340;BME280;46212;50.258;19.062;2023-04-10T09:41:57;99358.41;;;9.93;89.48
53340;BME280;46212;50.258;19.062;2023-04-10T09:44:37;99359.38;;;9.86;90.21
53340;BME280;46212;50.258;19.062;2023-04-10T09:47:21;99353.41;;;10.04;89.58
53340;BME280;46212;50.258;19.062;2023-04-10T09:49:49;99350.75;;;10.17;89.17
53340;BME280;46212;50.258;19.062;2023-04-10T09:54:45;99344.69;;;10.22;88.53
53340;BME280;46212;50.258;19.062;2023-04-10T09:57:15;99351.72;;;10.39;87.40
53340;BME280;46212;50.258;19.062;2023-04-10T09:59:42;99336.94;;;10.45;87.44
53340;BME280;46212;50.258;19.062;2023-04-10T10:02:12;99331.84;;;10.44;86.93
53340;BME280;46212;50.258;19.062;2023-04-10T10:04:38;99333.41;;;10.45;86.99
53340;BME280;46212;50.258;19.062;2023-04-10T10:07:06;99328.97;;;10.47;87.17
53340;BME280;46212;50.258;19.062;2023-04-10T10:09:32;99324.81;;;10.55;86.16
53340;BME280;46212;50.258;19.062;2023-04-10T10:12:00;99328.00;;;10.54;85.98
53340;BME280;46212;50.258;19.062;2023-04-10T10:14:26;99319.75;;;10.66;85.23
53340;BME280;46212;50.258;19.062;2023-04-10T10:16:55;99324.75;;;10.72;85.29
53340;BME280;46212;50.258;19.062;2023-04-10T10:19:48;99336.03;;;10.77;85.25
53340;BME280;46212;50.258;19.062;2023-04-10T10:22:16;99329.69;;;10.64;85.70
53340;BME280;46212;50.258;19.062;2023-04-10T10:24:45;99326.25;;;10.60;86.19
53340;BME280;46212;50.258;19.062;2023-04-10T10:27:12;99330.03;;;10.66;85.53
53340;BME280;46212;50.258;19.062;2023-04-10T10:29:40;99327.38;;;10.75;85.33
53340;BME280;46212;50.258;19.062;2023-04-10T10:32:08;99322.41;;;10.70;85.09
53340;BME280;46212;50.258;19.062;2023-04-10T10:34:35;99317.56;;;10.74;85.04
53340;BME280;46212;50.258;19.062;2023-04-10T10:37:03;99322.53;;;10.66;85.33
53340;BME280;46212;50.258;19.062;2023-04-10T10:42:59;99308.38;;;10.64;86.30
53340;BME280;46212;50.258;19.062;2023-04-10T10:45:47;99305.19;;;10.79;85.45
53340;BME280;46212;50.258;19.062;2023-04-10T10:48:14;99309.22;;;11.03;84.75
53340;BME280;46212;50.258;19.062;2023-04-10T10:51:08;99303.78;;;11.12;84.08
53340;BME280;46212;50.258;19.062;2023-04-10T10:53:37;99307.44;;;11.22;83.39
53340;BME280;46212;50.258;19.062;2023-04-10T11:01:16;99301.88;;;11.47;82.03
53340;BME280;46212;50.258;19.062;2023-04-10T11:03:42;99299.03;;;11.38;81.88
53340;BME280;46212;50.258;19.062;2023-04-10T11:06:15;99302.78;;;11.44;82.20
53340;BME280;46212;50.258;19.062;2023-04-10T11:08:49;99306.75;;;11.43;81.98
53340;BME280;46212;50.258;19.062;2023-04-10T11:14:27;99296.38;;;11.22;82.47
53340;BME280;46212;50.258;19.062;2023-04-10T11:19:06;99296.34;;;11.47;81.61
53340;BME280;46212;50.258;19.062;2023-04-10T11:21:33;99293.56;;;11.59;81.40
53340;BME280;46212;50.258;19.062;2023-04-10T11:31:44;99275.59;;;12.54;77.56
53340;BME280;46212;50.258;19.062;2023-04-10T11:34:10;99276.94;;;12.71;77.29
53340;BME280;46212;50.258;19.062;2023-04-10T11:36:40;99280.22;;;12.88;75.63
53340;BME280;46212;50.258;19.062;2023-04-10T11:39:13;99269.81;;;13.01;74.57
53340;BME280;46212;50.258;19.062;2023-04-10T11:41:42;99265.78;;;13.24;74.65
53340;BME280;46212;50.258;19.062;2023-04-10T11:44:10;99251.06;;;13.81;73.49
53340;BME280;46212;50.258;19.062;2023-04-10T11:46:38;99254.16;;;14.38;70.54
53340;BME280;46212;50.258;19.062;2023-04-10T11:49:04;99241.91;;;14.63;69.48
53340;BME280;46212;50.258;19.062;2023-04-10T11:51:31;99238.19;;;14.66;67.49
53340;BME280;46212;50.258;19.062;2023-04-10T11:54:24;99239.97;;;14.87;67.03
53340;BME280;46212;50.258;19.062;2023-04-10T11:57:06;99236.28;;;15.14;65.45
53340;BME280;46212;50.258;19.062;2023-04-10T11:59:34;99235.03;;;15.48;64.07
53340;BME280;46212;50.258;19.062;2023-04-10T12:02:12;99235.03;;;15.71;63.78
53340;BME280;46212;50.258;19.062;2023-04-10T12:04:39;99227.63;;;16.07;62.61
53340;BME280;46212;50.258;19.062;2023-04-10T12:07:05;99225.66;;;16.51;61.65
53340;BME280;46212;50.258;19.062;2023-04-10T12:09:31;99218.34;;;16.39;60.89
53340;BME280;46212;50.258;19.062;2023-04-10T12:14:34;99213.31;;;15.99;60.72
53340;BME280;46212;50.258;19.062;2023-04-10T12:17:02;99209.56;;;16.02;61.29
53340;BME280;46212;50.258;19.062;2023-04-10T12:19:28;99202.22;;;16.58;60.59
53340;BME280;46212;50.258;19.062;2023-04-10T12:21:55;99200.44;;;16.89;58.86
53340;BME280;46212;50.258;19.062;2023-04-10T12:27:05;99194.44;;;17.51;56.39
53340;BME280;46212;50.258;19.062;2023-04-10T12:29:30;99189.78;;;17.83;55.17
53340;BME280;46212;50.258;19.062;2023-04-10T12:31:56;99187.56;;;18.39;54.70
53340;BME280;46212;50.258;19.062;2023-04-10T12:34:21;99185.00;;;18.98;52.84
53340;BME280;46212;50.258;19.062;2023-04-10T12:36:51;99190.78;;;18.06;53.33
53340;BME280;46212;50.258;19.062;2023-04-10T12:39:22;99184.31;;;17.54;54.42
53340;BME280;46212;50.258;19.062;2023-04-10T12:41:48;99175.78;;;17.23;55.56
53340;BME280;46212;50.258;19.062;2023-04-10T12:44:13;99178.91;;;17.10;56.42
53340;BME280;46212;50.258;19.062;2023-04-10T12:46:40;99174.97;;;17.17;56.55
53340;BME280;46212;50.258;19.062;2023-04-10T12:51:48;99164.72;;;16.93;56.80
53340;BME280;46212;50.258;19.062;2023-04-10T12:54:33;99147.22;;;21.06;47.47
53340;BME280;46212;50.258;19.062;2023-04-10T12:57:00;99144.19;;;23.75;40.86
53340;BME280;46212;50.258;19.062;2023-04-10T12:59:26;99140.63;;;24.12;38.93
53340;BME280;46212;50.258;19.062;2023-04-10T13:01:54;99142.47;;;24.87;37.47
53340;BME280;46212;50.258;19.062;2023-04-10T13:04:20;99136.16;;;25.85;35.09
53340;BME280;46212;50.258;19.062;2023-04-10T13:06:47;99133.59;;;27.83;31.21
53340;BME280;46212;50.258;19.062;2023-04-10T13:09:13;99128.66;;;28.35;30.43
53340;BME280;46212;50.258;19.062;2023-04-10T13:11:39;99124.31;;;29.02;29.00
53340;BME280;46212;50.258;19.062;2023-04-10T13:14:05;99128.25;;;30.24;27.25
53340;BME280;46212;50.258;19.062;2023-04-10T13:16:30;99118.63;;;29.72;27.70
53340;BME280;46212;50.258;19.062;2023-04-10T13:18:56;99120.22;;;30.06;26.59
53340;BME280;46212;50.258;19.062;2023-04-10T13:21:21;99112.03;;;31.08;25.41
53340;BME280;46212;50.258;19.062;2023-04-10T13:23:50;99106.84;;;30.90;25.04
53340;BME280;46212;50.258;19.062;2023-04-10T13:26:16;99109.34;;;28.41;28.51
53340;BME280;46212;50.258;19.062;2023-04-10T13:28:41;99105.13;;;27.25;30.80
53340;BME280;46212;50.258;19.062;2023-04-10T13:31:06;99097.72;;;25.30;33.13
53340;BME280;46212;50.258;19.062;2023-04-10T13:33:32;99095.09;;;23.84;35.42
53340;BME280;46212;50.258;19.062;2023-04-10T13:35:57;99093.16;;;22.69;38.27
53340;BME280;46212;50.258;19.062;2023-04-10T13:38:23;99087.56;;;22.63;39.01
53340;BME280;46212;50.258;19.062;2023-04-10T13:40:48;99084.94;;;22.11;40.29